Time;durP1;ratioP1;P1;durP2;ratioP2;P2;SDS_P1;SDS_P2;PMS_P1;PMS_P2;Temp;Humidity;BMP_temperature;BMP_pressure;BME280_temperature;BME280_humidity;BME280_pressure;Samples;Min_cycle;Max_cycle;Signal;HPM_P1;HPM_P2
2022/01/20 00:01:08;;;;;;;;;;;3.00;99.90;;;;;;5075181;28;20386;-81
2022/01/20 00:03:32;;;;;;;;;;;3.10;99.90;;;;;;5092905;28;20364;-80
2022/01/20 00:07:16;;;;;;;;;;;3.10;99.90;;;;;;5075080;28;19908;-80
2022/01/20 00:09:11;;;;;;;;;;;3.00;99.90;;;;;;5082188;28;20450;-81
2022/01/20 00:28:10;;;;;;;;;;;3.10;99.90;;;;;;5097149;28;19999;-81
2022/01/20 00:30:44;;;;;;;;;;;3.10;99.90;;;;;;5078845;28;20257;-81
2022/01/20 00:38:20;;;;;;;;;;;3.10;99.90;;;;;;5096967;28;19908;-81
2022/01/20 00:40:46;;;;;;;;;;;3.20;99.90;;;;;;5078516;28;19994;-81
2022/01/20 00:43:11;;;;;;;;;;;3.20;99.90;;;;;;5078509;28;19919;-81
2022/01/20 00:45:37;;;;;;;;;;;3.20;99.90;;;;;;5078519;28;19912;-81
2022/01/20 00:48:03;;;;;;;;;;;3.20;99.90;;;;;;5096712;28;19908;-81
2022/01/20 00:50:28;;;;;;;;;;;3.20;99.90;;;;;;5078423;28;19915;-81
2022/01/20 00:52:54;;;;;;;;;;;3.10;99.90;;;;;;5078394;28;19915;-81
2022/01/20 00:55:20;;;;;;;;;;;3.20;99.90;;;;;;5078431;28;19908;-80
2022/01/20 00:57:46;;;;;;;;;;;3.10;99.90;;;;;;5078339;28;19909;-80
2022/01/20 01:00:12;;;;;;;;;;;3.10;99.90;;;;;;5078354;28;19914;-81
2022/01/20 01:02:38;;;;;;;;;;;3.10;99.90;;;;;;5078114;28;19912;-81
2022/01/20 01:05:04;;;;;;;;;;;3.10;99.90;;;;;;5078170;28;20440;-81
2022/01/20 01:10:05;;;;;;;;;;;3.10;99.90;;;;;;5096659;28;19963;-81
2022/01/20 01:12:43;;;;;;;;;;;3.10;99.90;;;;;;5078005;28;19908;-81
2022/01/20 01:15:15;;;;;;;;;;;3.10;99.90;;;;;;5078082;28;20316;-81
2022/01/20 01:20:27;;;;;;;;;;;3.10;99.90;;;;;;5096756;28;20019;-81
2022/01/20 01:22:52;;;;;;;;;;;3.10;99.90;;;;;;5077776;28;19923;-81
2022/01/20 01:25:18;;;;;;;;;;;3.10;99.90;;;;;;5076985;28;19908;-81
2022/01/20 01:27:45;;;;;;;;;;;3.10;99.90;;;;;;5077818;28;19908;-81
2022/01/20 01:35:10;;;;;;;;;;;3.10;99.90;;;;;;5095819;28;19912;-81
2022/01/20 01:38:24;;;;;;;;;;;3.20;99.90;;;;;;5095799;28;20279;-81
2022/01/20 01:40:26;;;;;;;;;;;3.20;99.90;;;;;;5095169;28;19948;-82
2022/01/20 01:42:52;;;;;;;;;;;3.20;99.90;;;;;;5077394;28;19912;-81
2022/01/20 01:45:34;;;;;;;;;;;3.20;99.90;;;;;;5077390;28;19974;-81
2022/01/20 01:48:00;;;;;;;;;;;3.20;99.90;;;;;;5077353;28;20344;-80
2022/01/20 01:50:26;;;;;;;;;;;3.30;99.90;;;;;;5077306;28;19908;-81
2022/01/20 01:52:52;;;;;;;;;;;3.30;99.90;;;;;;5077312;28;20019;-81
2022/01/20 01:55:18;;;;;;;;;;;3.30;99.90;;;;;;5077264;28;20019;-81
2022/01/20 01:57:43;;;;;;;;;;;3.20;99.90;;;;;;5077203;28;19943;-81
2022/01/20 02:00:10;;;;;;;;;;;3.30;99.90;;;;;;5095264;28;19908;-81
2022/01/20 02:02:36;;;;;;;;;;;3.30;99.90;;;;;;5076994;28;19923;-81
2022/01/20 02:05:04;;;;;;;;;;;3.30;99.90;;;;;;5077002;28;19951;-81
2022/01/20 02:18:42;;;;;;;;;;;3.30;99.90;;;;;;5095024;28;19923;-81
2022/01/20 02:21:07;;;;;;;;;;;3.30;99.90;;;;;;5076731;28;20219;-81
2022/01/20 02:23:33;;;;;;;;;;;3.30;99.90;;;;;;5076687;28;19908;-81
2022/01/20 02:25:59;;;;;;;;;;;3.20;99.90;;;;;;5077095;28;19909;-80
2022/01/20 02:28:25;;;;;;;;;;;3.20;99.90;;;;;;5076602;28;20334;-81
2022/01/20 02:30:51;;;;;;;;;;;3.20;99.90;;;;;;5076582;28;20334;-82
2022/01/20 02:33:18;;;;;;;;;;;3.20;99.90;;;;;;5076494;28;19908;-81
2022/01/20 02:35:52;;;;;;;;;;;3.20;99.90;;;;;;5076468;28;19909;-81
2022/01/20 02:38:26;;;;;;;;;;;3.20;99.90;;;;;;5094823;28;19908;-81
2022/01/20 02:46:20;;;;;;;;;;;3.30;99.90;;;;;;5074768;28;19932;-81
2022/01/20 02:48:45;;;;;;;;;;;3.20;99.90;;;;;;5072851;28;20364;-81
2022/01/20 02:51:11;;;;;;;;;;;3.30;99.90;;;;;;5072770;28;19942;-81
2022/01/20 02:53:37;;;;;;;;;;;3.20;99.90;;;;;;5072732;28;20398;-82
2022/01/20 02:56:02;;;;;;;;;;;3.20;99.90;;;;;;5072696;28;20261;-81
2022/01/20 02:58:28;;;;;;;;;;;3.20;99.90;;;;;;5073965;28;19915;-82
2022/01/20 03:00:54;;;;;;;;;;;3.30;99.90;;;;;;5073945;28;20338;-81
2022/01/20 03:03:20;;;;;;;;;;;3.30;99.90;;;;;;5072505;28;19919;-81
2022/01/20 03:05:46;;;;;;;;;;;3.40;99.90;;;;;;5073717;28;19909;-82
2022/01/20 03:08:11;;;;;;;;;;;3.30;99.90;;;;;;5072492;28;19999;-81
2022/01/20 03:10:38;;;;;;;;;;;3.30;99.90;;;;;;5072459;28;19916;-81
2022/01/20 03:13:05;;;;;;;;;;;3.30;99.90;;;;;;5072429;28;20387;-80
2022/01/20 03:15:33;;;;;;;;;;;3.20;99.90;;;;;;5072316;28;20336;-81
2022/01/20 03:17:59;;;;;;;;;;;3.10;99.90;;;;;;5072312;28;19908;-81
2022/01/20 03:20:24;;;;;;;;;;;3.10;99.90;;;;;;5072216;28;19978;-81
2022/01/20 03:22:50;;;;;;;;;;;3.20;99.90;;;;;;5072511;28;19913;-81
2022/01/20 03:25:16;;;;;;;;;;;3.20;99.90;;;;;;5072234;28;19952;-81
2022/01/20 03:27:41;;;;;;;;;;;3.20;99.90;;;;;;5072139;28;19958;-81
2022/01/20 03:30:07;;;;;;;;;;;3.20;99.90;;;;;;5073445;28;19935;-80
2022/01/20 03:32:34;;;;;;;;;;;3.20;99.90;;;;;;5073716;28;20272;-81
2022/01/20 03:35:00;;;;;;;;;;;3.30;99.90;;;;;;5073347;28;19915;-81
2022/01/20 03:37:25;;;;;;;;;;;3.20;99.90;;;;;;5072019;28;19912;-81
2022/01/20 03:39:51;;;;;;;;;;;3.20;99.90;;;;;;5074882;28;19923;-81
2022/01/20 03:42:16;;;;;;;;;;;3.20;99.90;;;;;;5075298;28;19912;-81
2022/01/20 03:44:42;;;;;;;;;;;3.30;99.90;;;;;;5075337;28;19908;-81
2022/01/20 03:47:09;;;;;;;;;;;3.30;99.90;;;;;;5075310;28;20279;-81
2022/01/20 03:49:50;;;;;;;;;;;3.30;99.90;;;;;;5074860;28;20315;-81
2022/01/20 03:52:16;;;;;;;;;;;3.30;99.90;;;;;;5075872;28;19908;-81
2022/01/20 03:54:41;;;;;;;;;;;3.20;99.90;;;;;;5075570;28;19908;-80
2022/01/20 03:57:07;;;;;;;;;;;3.20;99.90;;;;;;5075253;28;19998;-81
2022/01/20 03:59:33;;;;;;;;;;;3.20;99.90;;;;;;5075137;28;20363;-81
2022/01/20 04:01:58;;;;;;;;;;;3.20;99.90;;;;;;5075426;28;19995;-81
2022/01/20 04:04:24;;;;;;;;;;;3.20;99.90;;;;;;5075121;28;19908;-81
2022/01/20 04:06:49;;;;;;;;;;;3.20;99.90;;;;;;5075050;28;19908;-81
2022/01/20 04:09:15;;;;;;;;;;;3.10;99.90;;;;;;5075954;28;20420;-81
2022/01/20 04:11:41;;;;;;;;;;;3.10;99.90;;;;;;5075167;28;19912;-81
2022/01/20 04:14:07;;;;;;;;;;;3.10;99.90;;;;;;5093263;28;19908;-81
2022/01/20 04:16:36;;;;;;;;;;;3.10;99.90;;;;;;5075100;28;19908;-80
2022/01/20 04:19:07;;;;;;;;;;;3.10;99.90;;;;;;5074931;28;20003;-81
2022/01/20 04:21:33;;;;;;;;;;;3.10;99.90;;;;;;5074894;28;19919;-80
2022/01/20 04:24:00;;;;;;;;;;;3.10;99.90;;;;;;5075057;28;19908;-81
2022/01/20 04:26:26;;;;;;;;;;;3.10;99.90;;;;;;5075195;28;19973;-81
2022/01/20 04:28:56;;;;;;;;;;;3.00;99.90;;;;;;5074914;28;19915;-81
2022/01/20 04:31:23;;;;;;;;;;;3.10;99.90;;;;;;5074951;28;20287;-81
2022/01/20 04:33:49;;;;;;;;;;;3.10;99.90;;;;;;5074921;28;19908;-81
2022/01/20 04:36:14;;;;;;;;;;;3.10;99.90;;;;;;5074788;28;20328;-81
2022/01/20 04:38:40;;;;;;;;;;;3.10;99.90;;;;;;5074828;28;19934;-81
2022/01/20 04:41:06;;;;;;;;;;;3.10;99.90;;;;;;5071128;28;19967;-81
2022/01/20 04:43:31;;;;;;;;;;;3.20;99.90;;;;;;5071375;28;19912;-81
2022/01/20 04:46:06;;;;;;;;;;;3.20;99.90;;;;;;5072738;28;20322;-80
2022/01/20 04:59:10;;;;;;;;;;;3.10;99.90;;;;;;5073221;28;19971;-81
2022/01/20 05:01:36;;;;;;;;;;;3.10;99.90;;;;;;5073172;28;19920;-81
2022/01/20 05:04:03;;;;;;;;;;;3.10;99.90;;;;;;5074847;28;19908;-81
2022/01/20 05:06:28;;;;;;;;;;;3.10;99.90;;;;;;5074785;28;20346;-81
2022/01/20 05:08:54;;;;;;;;;;;3.10;99.90;;;;;;5076080;28;19909;-81
2022/01/20 05:11:20;;;;;;;;;;;3.10;99.90;;;;;;5074749;28;20083;-81
2022/01/20 05:13:46;;;;;;;;;;;3.10;99.90;;;;;;5074762;28;20368;-81
2022/01/20 05:16:11;;;;;;;;;;;3.20;99.90;;;;;;5074644;28;19944;-81
2022/01/20 05:18:37;;;;;;;;;;;3.10;99.90;;;;;;5074578;28;19916;-81
2022/01/20 05:21:02;;;;;;;;;;;3.10;99.90;;;;;;5074563;28;19947;-81
2022/01/20 05:23:31;;;;;;;;;;;3.00;99.90;;;;;;5074472;28;19920;-81
2022/01/20 05:25:56;;;;;;;;;;;3.00;99.90;;;;;;5074459;28;19916;-81
2022/01/20 05:28:22;;;;;;;;;;;3.10;99.90;;;;;;5074443;28;19908;-81
2022/01/20 05:30:48;;;;;;;;;;;3.10;99.90;;;;;;5074365;28;19908;-81
2022/01/20 05:33:13;;;;;;;;;;;3.20;99.90;;;;;;5075851;28;19951;-81
2022/01/20 05:35:39;;;;;;;;;;;3.10;99.90;;;;;;5074312;28;19908;-81
2022/01/20 05:38:05;;;;;;;;;;;3.20;99.90;;;;;;5075553;28;19912;-81
2022/01/20 05:40:31;;;;;;;;;;;3.20;99.90;;;;;;5081844;28;19926;-81
2022/01/20 05:42:57;;;;;;;;;;;3.20;99.90;;;;;;5077450;28;20338;-81
2022/01/20 05:45:24;;;;;;;;;;;3.10;99.90;;;;;;5077486;28;19912;-81
2022/01/20 05:47:58;;;;;;;;;;;3.20;99.90;;;;;;5095595;28;20007;-82
2022/01/20 05:50:24;;;;;;;;;;;3.10;99.90;;;;;;5095593;28;19908;-81
2022/01/20 05:52:50;;;;;;;;;;;3.20;99.90;;;;;;5077379;28;19908;-82
2022/01/20 05:55:17;;;;;;;;;;;3.10;99.90;;;;;;5077319;28;20007;-82
2022/01/20 05:57:43;;;;;;;;;;;3.10;99.90;;;;;;5077273;28;19958;-81
2022/01/20 06:00:11;;;;;;;;;;;3.10;99.90;;;;;;5095384;28;19908;-82
2022/01/20 06:03:36;;;;;;;;;;;3.00;99.90;;;;;;5077090;28;20003;-82
2022/01/20 06:05:22;;;;;;;;;;;3.10;99.90;;;;;;5094964;28;19915;-81
2022/01/20 06:07:48;;;;;;;;;;;3.10;99.90;;;;;;5077059;28;20279;-81
2022/01/20 06:10:14;;;;;;;;;;;3.20;99.90;;;;;;5076981;28;19966;-82
2022/01/20 06:12:39;;;;;;;;;;;3.20;99.90;;;;;;5076663;28;19908;-82
2022/01/20 06:15:05;;;;;;;;;;;3.20;99.90;;;;;;5076875;28;19912;-81
2022/01/20 06:17:34;;;;;;;;;;;3.20;99.90;;;;;;5076798;28;20007;-81
2022/01/20 06:20:00;;;;;;;;;;;3.10;99.90;;;;;;5076833;28;19940;-81
2022/01/20 06:22:25;;;;;;;;;;;3.10;99.90;;;;;;5076651;28;19947;-82
2022/01/20 06:24:51;;;;;;;;;;;3.10;99.90;;;;;;5076732;28;19923;-81
2022/01/20 06:27:16;;;;;;;;;;;3.10;99.90;;;;;;5076626;28;20249;-81
2022/01/20 06:29:42;;;;;;;;;;;3.10;99.90;;;;;;5076522;28;19957;-81
2022/01/20 06:32:08;;;;;;;;;;;3.10;99.90;;;;;;5076532;28;19908;-81
2022/01/20 06:34:34;;;;;;;;;;;3.10;99.90;;;;;;5076536;28;19908;-82
2022/01/20 06:37:00;;;;;;;;;;;3.10;99.90;;;;;;5076442;28;20337;-81
2022/01/20 06:39:25;;;;;;;;;;;3.10;99.90;;;;;;5076410;28;19912;-81
2022/01/20 06:41:51;;;;;;;;;;;3.00;99.90;;;;;;5094373;28;20019;-82
2022/01/20 06:44:18;;;;;;;;;;;3.10;99.90;;;;;;5076328;28;19931;-81
2022/01/20 06:46:44;;;;;;;;;;;3.10;99.90;;;;;;5076228;28;19915;-81
2022/01/20 06:49:10;;;;;;;;;;;3.10;99.90;;;;;;5076560;28;20355;-81
2022/01/20 06:51:36;;;;;;;;;;;3.20;99.90;;;;;;5076119;28;19957;-81
2022/01/20 06:54:02;;;;;;;;;;;3.20;99.90;;;;;;5076073;28;19947;-81
2022/01/20 06:56:27;;;;;;;;;;;3.20;99.90;;;;;;5076022;28;19914;-81
2022/01/20 06:58:53;;;;;;;;;;;3.10;99.90;;;;;;5075987;28;19991;-81
2022/01/20 07:01:18;;;;;;;;;;;3.20;99.90;;;;;;5075939;28;19908;-81
2022/01/20 07:03:44;;;;;;;;;;;3.10;99.90;;;;;;5076006;28;19973;-81
2022/01/20 07:06:10;;;;;;;;;;;3.20;99.90;;;;;;5075856;28;19908;-81
2022/01/20 07:08:35;;;;;;;;;;;3.20;99.90;;;;;;5075853;28;19923;-82
2022/01/20 07:11:01;;;;;;;;;;;3.10;99.90;;;;;;5094009;28;20386;-81
2022/01/20 07:13:26;;;;;;;;;;;3.10;99.90;;;;;;5076366;28;19915;-81
2022/01/20 07:15:54;;;;;;;;;;;3.10;99.90;;;;;;5075722;28;19940;-82
2022/01/20 07:18:19;;;;;;;;;;;3.10;99.90;;;;;;5075645;28;19908;-81
2022/01/20 07:20:47;;;;;;;;;;;3.00;99.90;;;;;;5075655;28;19912;-81
2022/01/20 07:23:13;;;;;;;;;;;3.00;99.90;;;;;;5074899;28;19919;-81
2022/01/20 07:25:39;;;;;;;;;;;3.00;99.90;;;;;;5075530;28;19908;-81
2022/01/20 07:28:04;;;;;;;;;;;3.00;99.90;;;;;;5075528;28;19915;-81
2022/01/20 07:30:30;;;;;;;;;;;3.00;99.90;;;;;;5075595;28;19908;-81
2022/01/20 07:32:56;;;;;;;;;;;2.90;99.90;;;;;;5075526;28;20006;-82
2022/01/20 07:35:21;;;;;;;;;;;2.90;99.90;;;;;;5075450;28;20386;-81
2022/01/20 07:37:47;;;;;;;;;;;2.90;99.90;;;;;;5075464;28;19908;-82
2022/01/20 07:40:13;;;;;;;;;;;2.90;99.90;;;;;;5071902;28;19917;-81
2022/01/20 07:42:39;;;;;;;;;;;2.90;99.90;;;;;;5071998;28;19912;-82
2022/01/20 07:45:06;;;;;;;;;;;2.90;99.90;;;;;;5071383;28;21418;-81
2022/01/20 07:47:32;;;;;;;;;;;2.90;99.90;;;;;;5071966;28;19908;-80
2022/01/20 07:49:58;;;;;;;;;;;2.90;99.90;;;;;;5071910;28;20265;-81
2022/01/20 07:52:23;;;;;;;;;;;2.90;99.90;;;;;;5072032;28;19909;-81
2022/01/20 07:54:49;;;;;;;;;;;2.90;99.90;;;;;;5071947;28;19909;-80
2022/01/20 07:57:15;;;;;;;;;;;3.10;99.90;;;;;;5071940;28;19912;-80
2022/01/20 07:59:40;;;;;;;;;;;3.20;99.90;;;;;;5071900;28;19995;-80
2022/01/20 08:02:06;;;;;;;;;;;3.30;99.90;;;;;;5073066;28;20382;-79
2022/01/20 08:04:31;;;;;;;;;;;3.50;99.90;;;;;;5071810;28;19912;-80
2022/01/20 08:06:57;;;;;;;;;;;3.70;99.90;;;;;;5071717;28;19928;-81
2022/01/20 08:09:23;;;;;;;;;;;3.80;99.90;;;;;;5071775;28;19916;-80
2022/01/20 08:11:49;;;;;;;;;;;3.90;99.90;;;;;;5071823;28;19908;-80
2022/01/20 08:14:15;;;;;;;;;;;3.90;99.90;;;;;;5071788;28;20413;-81
2022/01/20 08:16:41;;;;;;;;;;;4.00;99.90;;;;;;5071752;28;19908;-81
2022/01/20 08:19:06;;;;;;;;;;;4.20;99.90;;;;;;5071736;28;19908;-81
2022/01/20 08:21:32;;;;;;;;;;;4.40;99.90;;;;;;5071654;28;19912;-80
2022/01/20 08:23:57;;;;;;;;;;;4.50;99.90;;;;;;5073312;28;20275;-81
2022/01/20 08:26:23;;;;;;;;;;;4.60;99.90;;;;;;5071736;28;19958;-81
2022/01/20 08:28:49;;;;;;;;;;;4.40;99.90;;;;;;5071707;28;20371;-80
2022/01/20 08:31:14;;;;;;;;;;;4.30;99.90;;;;;;5071914;28;19909;-80
2022/01/20 08:33:40;;;;;;;;;;;4.10;99.90;;;;;;5071650;28;19943;-80
2022/01/20 08:36:06;;;;;;;;;;;3.90;99.90;;;;;;5074514;28;19913;-81
2022/01/20 08:38:31;;;;;;;;;;;3.90;99.90;;;;;;5075524;28;20287;-81
2022/01/20 08:40:57;;;;;;;;;;;3.80;99.90;;;;;;5075268;28;19920;-81
2022/01/20 08:43:23;;;;;;;;;;;3.70;99.90;;;;;;5076574;28;20028;-81
2022/01/20 08:45:48;;;;;;;;;;;3.70;99.90;;;;;;5075380;28;19908;-81
2022/01/20 08:48:14;;;;;;;;;;;3.60;99.90;;;;;;5075220;28;19915;-80
2022/01/20 08:50:41;;;;;;;;;;;3.60;99.90;;;;;;5075242;28;19908;-79
2022/01/20 08:53:07;;;;;;;;;;;3.60;99.90;;;;;;5075195;28;19908;-81
2022/01/20 08:55:34;;;;;;;;;;;3.70;99.90;;;;;;5075155;28;19948;-81
2022/01/20 08:58:00;;;;;;;;;;;3.60;99.90;;;;;;5075092;28;20272;-80
2022/01/20 09:00:28;;;;;;;;;;;3.50;99.90;;;;;;5076273;28;19935;-81
2022/01/20 09:02:53;;;;;;;;;;;3.60;99.90;;;;;;5074923;28;19919;-81
2022/01/20 09:05:19;;;;;;;;;;;3.60;99.90;;;;;;5074826;28;20007;-80
2022/01/20 09:07:45;;;;;;;;;;;3.50;99.90;;;;;;5074894;28;19909;-81
2022/01/20 09:10:18;;;;;;;;;;;3.50;99.90;;;;;;5074843;28;19909;-81
2022/01/20 09:15:29;;;;;;;;;;;3.70;99.90;;;;;;5076103;28;19909;-81
2022/01/20 09:17:55;;;;;;;;;;;3.80;99.90;;;;;;5076094;28;20332;-81
2022/01/20 09:20:21;;;;;;;;;;;3.80;99.90;;;;;;5074694;28;19908;-81
2022/01/20 09:22:48;;;;;;;;;;;3.90;99.90;;;;;;5074605;28;19980;-81
2022/01/20 09:25:15;;;;;;;;;;;3.90;99.90;;;;;;5074626;28;19908;-81
2022/01/20 09:27:41;;;;;;;;;;;3.80;99.90;;;;;;5075870;28;19916;-80
2022/01/20 09:30:08;;;;;;;;;;;3.80;99.90;;;;;;5075361;28;20272;-81
2022/01/20 09:32:37;;;;;;;;;;;3.80;99.90;;;;;;5074476;28;20360;-80
2022/01/20 09:35:03;;;;;;;;;;;3.80;99.90;;;;;;5074439;28;19916;-80
2022/01/20 09:37:28;;;;;;;;;;;3.70;99.90;;;;;;5074644;28;19908;-81
2022/01/20 09:39:55;;;;;;;;;;;3.80;99.90;;;;;;5075388;28;19909;-80
2022/01/20 09:42:21;;;;;;;;;;;3.80;99.90;;;;;;5077596;28;20019;-80
2022/01/20 09:44:47;;;;;;;;;;;3.80;99.90;;;;;;5078223;28;19939;-80
2022/01/20 09:47:15;;;;;;;;;;;3.80;99.90;;;;;;5076801;28;20260;-80
2022/01/20 09:49:41;;;;;;;;;;;3.80;99.90;;;;;;5077459;28;19908;-80
2022/01/20 09:52:07;;;;;;;;;;;3.90;99.90;;;;;;5077449;28;19915;-80
2022/01/20 09:54:33;;;;;;;;;;;4.00;99.90;;;;;;5077493;28;19994;-80
2022/01/20 09:56:59;;;;;;;;;;;4.00;99.90;;;;;;5095539;28;19955;-80
2022/01/20 09:59:25;;;;;;;;;;;4.00;99.90;;;;;;5077274;28;19908;-79
2022/01/20 10:01:56;;;;;;;;;;;4.00;99.90;;;;;;5077103;28;19912;-80
2022/01/20 10:04:22;;;;;;;;;;;4.00;99.90;;;;;;5077280;28;20061;-80
2022/01/20 10:06:59;;;;;;;;;;;3.90;99.90;;;;;;5077120;28;19915;-80
2022/01/20 10:09:35;;;;;;;;;;;3.90;99.90;;;;;;5077209;28;20356;-79
2022/01/20 10:12:01;;;;;;;;;;;3.80;99.90;;;;;;5077030;28;19947;-79
2022/01/20 10:14:37;;;;;;;;;;;3.90;99.90;;;;;;5077037;28;19934;-79
2022/01/20 10:17:13;;;;;;;;;;;4.00;99.90;;;;;;5095031;28;19908;-78
2022/01/20 10:19:39;;;;;;;;;;;3.90;99.90;;;;;;5076937;28;19915;-81
2022/01/20 10:22:15;;;;;;;;;;;3.90;99.90;;;;;;5095006;28;19912;-81
2022/01/20 10:24:42;;;;;;;;;;;3.90;99.90;;;;;;5076742;28;20376;-81
2022/01/20 10:27:08;;;;;;;;;;;4.00;99.90;;;;;;5076638;28;19908;-80
2022/01/20 10:29:34;;;;;;;;;;;3.90;99.90;;;;;;5076650;28;19908;-81
2022/01/20 10:31:59;;;;;;;;;;;3.90;99.90;;;;;;5094815;28;19908;-83
2022/01/20 10:34:30;;;;;;;;;;;3.90;99.90;;;;;;5076494;28;19912;-81
2022/01/20 10:36:56;;;;;;;;;;;3.90;99.90;;;;;;5076567;28;20349;-82
2022/01/20 10:39:39;;;;;;;;;;;3.90;99.90;;;;;;5076430;28;20284;-82
2022/01/20 10:42:06;;;;;;;;;;;4.00;99.90;;;;;;5076116;28;19920;-81
2022/01/20 10:44:42;;;;;;;;;;;4.00;99.90;;;;;;5077184;28;19908;-81
2022/01/20 10:47:10;;;;;;;;;;;3.90;99.90;;;;;;5076368;28;19908;-82
2022/01/20 10:49:36;;;;;;;;;;;3.80;99.90;;;;;;5076175;28;19912;-82
2022/01/20 10:52:06;;;;;;;;;;;3.80;99.90;;;;;;5076118;28;19931;-82
2022/01/20 10:54:40;;;;;;;;;;;3.80;99.90;;;;;;5076126;28;19915;-83
2022/01/20 10:57:07;;;;;;;;;;;3.90;99.90;;;;;;5076110;28;19908;-82
2022/01/20 10:59:34;;;;;;;;;;;3.80;99.90;;;;;;5093293;28;19933;-82
2022/01/20 11:02:07;;;;;;;;;;;3.90;99.90;;;;;;5075759;28;19912;-82
2022/01/20 11:04:33;;;;;;;;;;;3.90;99.90;;;;;;5075942;28;19969;-82
2022/01/20 11:07:02;;;;;;;;;;;3.80;99.90;;;;;;5076128;28;20018;-82
2022/01/20 11:09:29;;;;;;;;;;;3.70;99.90;;;;;;5075723;28;19908;-82
2022/01/20 11:11:55;;;;;;;;;;;3.70;99.90;;;;;;5075764;28;19908;-81
2022/01/20 11:14:21;;;;;;;;;;;3.70;99.90;;;;;;5075723;28;19908;-83
2022/01/20 11:16:47;;;;;;;;;;;3.70;99.90;;;;;;5075901;28;19914;-82
2022/01/20 11:19:16;;;;;;;;;;;3.70;99.90;;;;;;5075750;28;19954;-82
2022/01/20 11:21:44;;;;;;;;;;;3.60;99.90;;;;;;5093641;28;20014;-82
2022/01/20 11:24:17;;;;;;;;;;;3.70;99.90;;;;;;5075570;28;19908;-81
2022/01/20 11:26:56;;;;;;;;;;;3.80;99.90;;;;;;5075790;28;19908;-82
2022/01/20 11:29:23;;;;;;;;;;;3.80;99.90;;;;;;5093735;28;19957;-81
2022/01/20 11:31:49;;;;;;;;;;;3.80;99.90;;;;;;5075549;28;19908;-81
2022/01/20 11:34:16;;;;;;;;;;;3.80;99.90;;;;;;5075510;28;19915;-82
2022/01/20 11:36:42;;;;;;;;;;;3.90;99.90;;;;;;5075597;28;19912;-82
2022/01/20 11:39:08;;;;;;;;;;;3.90;99.90;;;;;;5075502;28;20363;-82
2022/01/20 11:41:40;;;;;;;;;;;3.90;99.90;;;;;;5075271;28;19962;-81
2022/01/20 11:44:13;;;;;;;;;;;3.90;99.90;;;;;;5075442;28;19908;-81
2022/01/20 11:46:41;;;;;;;;;;;4.10;99.90;;;;;;5093551;28;20293;-82
2022/01/20 11:49:10;;;;;;;;;;;4.10;99.90;;;;;;5075145;28;20382;-80
2022/01/20 11:51:42;;;;;;;;;;;4.20;99.90;;;;;;5075346;28;20045;-81
2022/01/20 11:54:08;;;;;;;;;;;4.30;99.90;;;;;;5075340;28;19908;-81
2022/01/20 11:56:42;;;;;;;;;;;4.30;99.90;;;;;;5075227;28;20371;-81
2022/01/20 11:59:10;;;;;;;;;;;4.20;99.90;;;;;;5076046;28;20347;-81
2022/01/20 12:01:52;;;;;;;;;;;4.20;99.90;;;;;;5075116;28;19908;-82
2022/01/20 12:04:29;;;;;;;;;;;4.00;99.90;;;;;;5075265;28;19909;-81
2022/01/20 12:06:55;;;;;;;;;;;3.80;99.90;;;;;;5075177;28;19939;-81
2022/01/20 12:09:28;;;;;;;;;;;3.40;99.90;;;;;;5075196;28;19962;-82
2022/01/20 12:11:54;;;;;;;;;;;3.40;99.90;;;;;;5079270;28;19912;-82
2022/01/20 12:14:36;;;;;;;;;;;3.40;99.90;;;;;;5097438;28;20403;-82
2022/01/20 12:17:03;;;;;;;;;;;3.50;99.90;;;;;;5079143;28;19908;-82
2022/01/20 12:19:29;;;;;;;;;;;3.60;99.90;;;;;;5079205;28;19919;-82
2022/01/20 12:21:54;;;;;;;;;;;3.90;99.90;;;;;;5079040;28;19912;-81
2022/01/20 12:24:20;;;;;;;;;;;4.30;99.90;;;;;;5079128;28;20253;-83
2022/01/20 12:26:46;;;;;;;;;;;4.70;99.90;;;;;;5079046;28;19948;-83
2022/01/20 12:29:12;;;;;;;;;;;5.50;99.90;;;;;;5078995;28;20379;-84
2022/01/20 12:31:49;;;;;;;;;;;5.60;99.90;;;;;;5078986;28;20421;-82
2022/01/20 12:34:15;;;;;;;;;;;5.50;99.90;;;;;;5078935;28;19908;-82
2022/01/20 12:36:40;;;;;;;;;;;4.90;99.90;;;;;;5078929;28;19915;-82
2022/01/20 12:39:06;;;;;;;;;;;4.90;99.90;;;;;;5078822;28;19913;-83
2022/01/20 12:41:32;;;;;;;;;;;5.00;99.90;;;;;;5078618;28;19920;-81
2022/01/20 12:44:06;;;;;;;;;;;5.00;99.90;;;;;;5078768;28;20007;-82
2022/01/20 12:46:33;;;;;;;;;;;4.90;99.90;;;;;;5078686;28;19909;-83
2022/01/20 12:49:01;;;;;;;;;;;4.50;99.90;;;;;;5078603;28;19908;-81
2022/01/20 12:51:34;;;;;;;;;;;4.40;99.90;;;;;;5078470;28;20329;-81
2022/01/20 12:54:05;;;;;;;;;;;4.20;99.90;;;;;;5096731;28;20003;-81
2022/01/20 12:56:35;;;;;;;;;;;4.20;99.90;;;;;;5078421;28;19908;-81
2022/01/20 12:59:00;;;;;;;;;;;4.20;99.90;;;;;;5078379;28;19908;-81
2022/01/20 13:01:36;;;;;;;;;;;4.20;99.90;;;;;;5078334;28;20424;-81
2022/01/20 13:04:02;;;;;;;;;;;4.20;99.90;;;;;;5078381;28;19998;-83
2022/01/20 13:06:29;;;;;;;;;;;4.20;99.90;;;;;;5078206;28;20375;-83
2022/01/20 13:09:01;;;;;;;;;;;4.10;99.90;;;;;;5078256;28;19912;-82
2022/01/20 13:11:37;;;;;;;;;;;4.10;99.90;;;;;;5078192;28;19998;-81
2022/01/20 13:14:02;;;;;;;;;;;3.70;99.90;;;;;;5078168;28;20386;-82
2022/01/20 13:16:28;;;;;;;;;;;3.40;99.90;;;;;;5096343;28;19908;-84
2022/01/20 13:18:58;;;;;;;;;;;3.10;99.90;;;;;;5078139;28;19974;-82
2022/01/20 13:21:35;;;;;;;;;;;3.00;99.90;;;;;;5095278;28;20061;-81
2022/01/20 13:24:02;;;;;;;;;;;2.50;99.90;;;;;;5078002;28;19915;-81
2022/01/20 13:26:27;;;;;;;;;;;2.50;99.90;;;;;;5077947;28;19941;-82
2022/01/20 13:29:00;;;;;;;;;;;2.40;99.90;;;;;;5096079;28;20007;-81
2022/01/20 13:31:26;;;;;;;;;;;2.40;99.90;;;;;;5077860;28;19919;-82
2022/01/20 13:33:51;;;;;;;;;;;2.40;99.90;;;;;;5077789;28;19908;-82
2022/01/20 13:36:20;;;;;;;;;;;2.50;99.90;;;;;;5077751;28;19908;-81
2022/01/20 13:38:48;;;;;;;;;;;2.50;99.90;;;;;;5077572;28;20007;-81
2022/01/20 13:41:22;;;;;;;;;;;2.50;99.90;;;;;;5077364;28;19946;-81
2022/01/20 13:46:33;;;;;;;;;;;2.60;99.90;;;;;;5096049;28;19915;-80
2022/01/20 13:49:13;;;;;;;;;;;2.50;99.90;;;;;;5077507;28;20375;-81
2022/01/20 13:51:38;;;;;;;;;;;2.60;99.90;;;;;;5095556;28;19908;-81
2022/01/20 13:54:04;;;;;;;;;;;2.70;99.90;;;;;;5077636;28;19957;-81
2022/01/20 13:56:30;;;;;;;;;;;2.70;99.90;;;;;;5077378;28;19908;-81
2022/01/20 13:59:06;;;;;;;;;;;2.80;99.90;;;;;;5077366;28;19958;-81
2022/01/20 14:01:31;;;;;;;;;;;2.90;99.90;;;;;;5077162;28;19954;-81
2022/01/20 14:03:57;;;;;;;;;;;2.90;99.90;;;;;;5077171;28;19912;-81
2022/01/20 14:06:23;;;;;;;;;;;2.90;99.90;;;;;;5095286;28;19996;-81
2022/01/20 14:08:48;;;;;;;;;;;2.90;99.90;;;;;;5095363;28;19934;-82
2022/01/20 14:11:15;;;;;;;;;;;2.80;99.90;;;;;;5077130;28;19908;-82
2022/01/20 14:13:40;;;;;;;;;;;3.10;99.90;;;;;;5077003;28;19908;-81
2022/01/20 14:16:06;;;;;;;;;;;3.40;99.90;;;;;;5076956;28;19919;-82
2022/01/20 14:18:40;;;;;;;;;;;3.70;99.90;;;;;;5076942;28;19915;-81
2022/01/20 14:21:07;;;;;;;;;;;3.90;99.90;;;;;;5076925;28;19951;-82
2022/01/20 14:23:32;;;;;;;;;;;4.10;99.90;;;;;;5076876;28;20007;-81
2022/01/20 14:26:00;;;;;;;;;;;4.00;99.90;;;;;;5077103;28;20425;-82
2022/01/20 14:28:26;;;;;;;;;;;3.90;99.90;;;;;;5076686;28;19995;-82
2022/01/20 14:30:51;;;;;;;;;;;3.90;99.90;;;;;;5076723;28;20382;-82
2022/01/20 14:33:17;;;;;;;;;;;3.90;99.90;;;;;;5076450;28;19957;-82
2022/01/20 14:35:44;;;;;;;;;;;3.80;99.90;;;;;;5076580;28;20237;-80
2022/01/20 14:38:10;;;;;;;;;;;3.80;99.90;;;;;;5076524;28;19912;-82
2022/01/20 14:40:36;;;;;;;;;;;3.70;99.90;;;;;;5076434;28;19924;-81
2022/01/20 14:43:01;;;;;;;;;;;3.50;99.90;;;;;;5076443;28;20227;-82
2022/01/20 14:45:27;;;;;;;;;;;3.60;99.90;;;;;;5076361;28;19908;-81
2022/01/20 14:47:53;;;;;;;;;;;3.40;99.90;;;;;;5076719;28;19909;-83
2022/01/20 14:50:20;;;;;;;;;;;3.30;99.90;;;;;;5076374;28;19912;-84
2022/01/20 14:52:46;;;;;;;;;;;3.30;99.90;;;;;;5076808;28;19960;-86
2022/01/20 14:55:11;;;;;;;;;;;3.30;99.90;;;;;;5076311;28;19912;-85
2022/01/20 14:57:37;;;;;;;;;;;3.30;99.90;;;;;;5076192;28;19960;-87
2022/01/20 15:00:05;;;;;;;;;;;3.30;99.90;;;;;;5076220;28;19970;-87
2022/01/20 15:02:30;;;;;;;;;;;3.20;99.90;;;;;;5076204;28;20375;-84
2022/01/20 15:04:56;;;;;;;;;;;3.20;99.90;;;;;;5076603;28;20048;-84
2022/01/20 15:07:22;;;;;;;;;;;3.20;99.90;;;;;;5076082;28;19918;-87
2022/01/20 15:09:48;;;;;;;;;;;3.20;99.90;;;;;;5076046;28;19908;-85
2022/01/20 15:12:14;;;;;;;;;;;3.10;99.90;;;;;;5075915;28;20249;-85
2022/01/20 15:14:40;;;;;;;;;;;3.20;99.90;;;;;;5094102;28;19908;-85
2022/01/20 15:17:06;;;;;;;;;;;3.20;99.90;;;;;;5075850;28;19912;-85
2022/01/20 15:19:31;;;;;;;;;;;3.10;99.90;;;;;;5075815;28;19930;-84
2022/01/20 15:21:57;;;;;;;;;;;2.90;99.90;;;;;;5075760;28;19920;-86
2022/01/20 15:24:23;;;;;;;;;;;2.90;99.90;;;;;;5075885;28;19908;-84
2022/01/20 15:26:48;;;;;;;;;;;2.90;99.90;;;;;;5075755;28;20003;-84
2022/01/20 15:29:14;;;;;;;;;;;2.90;99.90;;;;;;5093901;28;19909;-86
2022/01/20 15:31:40;;;;;;;;;;;3.00;99.90;;;;;;5075759;28;20247;-86
2022/01/20 15:34:07;;;;;;;;;;;3.00;99.90;;;;;;5075675;28;19915;-85
2022/01/20 15:36:33;;;;;;;;;;;3.00;99.90;;;;;;5075629;28;19908;-85